createdAt,value
2023-02-04T00:02:28.943Z,24.83
2023-02-04T00:07:34.067Z,21.16
2023-02-04T00:12:39.702Z,23.46
2023-02-04T00:17:43.123Z,21.76
2023-02-04T00:22:48.148Z,20.67
2023-02-04T00:27:53.852Z,21.08
2023-02-04T00:32:57.304Z,23.89
2023-02-04T00:38:02.073Z,47.00
2023-02-04T00:43:08.064Z,25.95
2023-02-04T00:48:13.671Z,21.98
2023-02-04T00:53:18.511Z,23.89
2023-02-04T00:58:24.579Z,25.60
2023-02-04T01:03:30.144Z,25.78
2023-02-04T01:08:34.904Z,33.00
2023-02-04T01:13:38.345Z,32.21
2023-02-04T01:18:44.422Z,25.17
2023-02-04T01:23:51.401Z,24.56
2023-02-04T01:28:54.918Z,23.19
2023-02-04T01:33:58.644Z,24.14
2023-02-04T01:39:03.552Z,23.49
2023-02-04T01:44:07.243Z,25.78
2023-02-04T01:49:12.306Z,24.93
2023-02-04T01:54:18.012Z,24.49
2023-02-04T01:59:21.395Z,26.16
2023-02-04T02:04:30.809Z,24.88
2023-02-04T02:09:38.974Z,24.71
2023-02-04T02:14:42.685Z,24.86
2023-02-04T02:19:46.238Z,23.71
2023-02-04T02:24:53.347Z,21.92
2023-02-04T02:29:58.927Z,29.47
2023-02-04T02:35:02.796Z,16.30
2023-02-04T02:40:08.461Z,14.32
2023-02-04T02:45:17.616Z,13.65
2023-02-04T02:50:22.675Z,13.31
2023-02-04T02:55:30.193Z,12.74
2023-02-04T03:00:35.027Z,12.07
2023-02-04T03:05:42.885Z,11.26
2023-02-04T03:10:51.855Z,10.70
2023-02-04T03:15:55.652Z,10.46
2023-02-04T03:21:00.100Z,10.23
2023-02-04T03:26:08.550Z,10.42
2023-02-04T03:31:14.478Z,10.45
2023-02-04T03:36:20.137Z,10.37
2023-02-04T03:41:25.013Z,11.21
2023-02-04T03:46:29.275Z,11.71
2023-02-04T03:51:33.085Z,10.92
2023-02-04T03:56:40.100Z,10.80
2023-02-04T04:01:43.505Z,10.98
2023-02-04T04:06:46.896Z,17.79
2023-02-04T04:11:51.651Z,11.16
2023-02-04T04:16:57.610Z,12.02
2023-02-04T04:22:03.266Z,13.40
2023-02-04T04:27:08.016Z,11.38
2023-02-04T04:32:13.691Z,10.33
2023-02-04T04:37:17.417Z,10.56
2023-02-04T04:42:22.145Z,10.45
2023-02-04T04:47:28.091Z,10.89
2023-02-04T04:52:31.528Z,10.35
2023-02-04T04:57:38.464Z,11.85
2023-02-04T05:02:42.016Z,13.00
2023-02-04T05:07:45.414Z,12.90
2023-02-04T05:12:50.127Z,13.52
2023-02-04T05:17:53.817Z,13.72
2023-02-04T05:22:57.389Z,20.34
2023-02-04T05:28:02.189Z,21.99
2023-02-04T05:33:05.693Z,17.13
2023-02-04T05:38:11.681Z,29.50
2023-02-04T05:43:16.531Z,24.23
2023-02-04T05:48:19.870Z,29.53
2023-02-04T05:53:24.845Z,32.40
2023-02-04T05:58:34.384Z,22.32
2023-02-04T06:03:37.821Z,27.42
2023-02-04T06:08:43.836Z,21.24
2023-02-04T06:13:50.826Z,22.53
2023-02-04T06:18:56.314Z,21.80
2023-02-04T06:23:59.723Z,23.50
2023-02-04T06:29:04.483Z,27.60
2023-02-04T06:34:10.216Z,25.31
2023-02-04T06:39:13.607Z,38.96
2023-02-04T06:44:20.497Z,23.91
2023-02-04T06:49:26.775Z,22.20
2023-02-04T06:54:32.427Z,23.19
2023-02-04T06:59:40.821Z,20.70
2023-02-04T07:04:45.592Z,23.69
2023-02-04T07:09:55.779Z,24.27
2023-02-04T07:15:00.589Z,42.44
2023-02-04T07:20:04.160Z,25.33
2023-02-04T07:25:07.927Z,22.15
2023-02-04T07:30:13.305Z,28.86
2023-02-04T07:35:17.706Z,34.17
2023-02-04T07:40:21.919Z,24.47
2023-02-04T07:45:26.778Z,22.06
2023-02-04T07:50:30.565Z,24.10
2023-02-04T07:55:34.504Z,28.64
2023-02-04T08:00:41.605Z,26.87
2023-02-04T08:05:44.981Z,25.16
2023-02-04T08:10:48.665Z,23.85
2023-02-04T08:15:53.558Z,23.04
2023-02-04T08:20:56.974Z,23.25
2023-02-04T08:26:00.987Z,23.36
2023-02-04T08:31:07.112Z,20.70
2023-02-04T08:36:10.829Z,26.44
2023-02-04T08:41:14.304Z,28.91
2023-02-04T08:46:19.170Z,26.50
2023-02-04T08:51:22.821Z,27.78
2023-02-04T08:56:28.670Z,24.07
2023-02-04T09:01:33.449Z,23.70
2023-02-04T09:06:36.895Z,31.20
2023-02-04T09:11:43.171Z,20.12
2023-02-04T09:16:50.457Z,22.63
2023-02-04T09:21:56.406Z,26.50
2023-02-04T09:27:01.979Z,26.00
2023-02-04T09:32:07.125Z,26.24
2023-02-04T09:37:10.575Z,30.88
2023-02-04T09:42:15.927Z,28.19
2023-02-04T09:47:23.531Z,26.24
2023-02-04T09:52:29.603Z,28.55
2023-02-04T09:57:33.059Z,22.83
2023-02-04T10:02:37.828Z,23.16
2023-02-04T10:07:41.756Z,24.73
2023-02-04T10:12:45.689Z,25.89
2023-02-04T10:17:53.156Z,23.32
2023-02-04T10:22:57.430Z,23.37
2023-02-04T10:28:01.494Z,22.99
2023-02-04T10:33:15.671Z,22.59
2023-02-04T10:38:19.224Z,17.16
2023-02-04T10:43:25.764Z,20.29
2023-02-04T10:48:31.581Z,22.34
2023-02-04T10:53:52.435Z,21.09
2023-02-04T10:58:55.895Z,21.80
2023-02-04T11:04:00.740Z,24.86
2023-02-04T11:36:26.110Z,35.03
2023-02-04T11:41:31.533Z,22.57
2023-02-04T11:46:34.962Z,29.52
2023-02-04T11:51:44.819Z,40.25
2023-02-04T11:56:48.296Z,23.44
2023-02-04T12:01:51.746Z,26.62
2023-02-04T12:07:00.655Z,20.22
2023-02-04T12:12:06.649Z,26.48
2023-02-04T12:17:17.817Z,30.73
2023-02-04T12:22:24.669Z,29.76
2023-02-04T12:27:27.995Z,17.40
2023-02-04T12:32:33.832Z,20.10
2023-02-04T12:37:38.562Z,15.01
2023-02-04T12:42:44.496Z,16.24
2023-02-04T12:47:48.231Z,16.03
2023-02-04T12:52:54.075Z,11.51
2023-02-04T12:58:00.007Z,13.37
2023-02-04T13:03:03.422Z,16.27
2023-02-04T13:08:10.296Z,12.22
2023-02-04T13:13:13.797Z,13.10
2023-02-04T13:18:18.421Z,13.77
2023-02-04T13:23:23.225Z,7.78
2023-02-04T13:28:26.691Z,8.74
2023-02-04T13:33:34.793Z,17.93
2023-02-04T13:38:39.706Z,11.39
2023-02-04T13:43:45.297Z,13.22
2023-02-04T13:48:51.505Z,12.32
2023-02-04T13:53:56.439Z,10.88
2023-02-04T13:59:02.652Z,14.93
2023-02-04T14:04:06.146Z,10.48
2023-02-04T14:09:12.283Z,11.33
2023-02-04T14:14:18.429Z,17.02
2023-02-04T14:19:21.967Z,17.57
2023-02-04T14:24:26.906Z,11.51
2023-02-04T14:29:30.349Z,8.76
2023-02-04T14:34:36.049Z,8.43
2023-02-04T14:39:45.465Z,17.28
2023-02-04T14:44:48.907Z,14.42
2023-02-04T14:49:54.770Z,16.82
2023-02-04T14:55:02.208Z,23.80
2023-02-04T15:00:06.864Z,31.00
2023-02-04T15:05:11.203Z,27.76
2023-02-04T15:10:16.030Z,29.51
2023-02-04T15:15:19.663Z,30.48
2023-02-04T15:20:25.804Z,34.11
2023-02-04T15:25:33.011Z,32.37
2023-02-04T15:30:39.524Z,30.18
2023-02-04T15:35:43.101Z,29.53
2023-02-04T15:40:50.133Z,27.73
2023-02-04T15:45:53.540Z,28.12
2023-02-04T15:50:57.210Z,29.06
2023-02-04T15:56:02.151Z,25.81
2023-02-04T16:01:08.100Z,24.94
2023-02-04T16:06:13.938Z,29.56
2023-02-04T16:11:18.677Z,31.16
2023-02-04T16:16:22.521Z,27.18
2023-02-04T16:21:26.065Z,29.77
2023-02-04T16:26:33.489Z,29.89
2023-02-04T16:31:37.193Z,28.27
2023-02-04T16:36:45.428Z,30.63
2023-02-04T16:41:50.284Z,29.98
2023-02-04T16:46:56.166Z,32.47
2023-02-04T16:52:04.486Z,32.23
2023-02-04T16:57:09.384Z,30.91
2023-02-04T17:02:12.795Z,34.03
2023-02-04T17:07:16.354Z,29.16
2023-02-04T17:12:21.569Z,28.09
2023-02-04T17:17:25.106Z,36.89
2023-02-04T17:22:28.571Z,34.87
2023-02-04T17:27:35.466Z,34.56
2023-02-04T17:32:41.303Z,33.66
2023-02-04T17:37:44.997Z,37.10
2023-02-04T17:42:51.864Z,31.38
2023-02-04T17:47:55.344Z,38.62
2023-02-04T17:52:58.788Z,38.25
2023-02-04T17:58:08.959Z,37.02
2023-02-04T18:03:13.769Z,35.70
2023-02-04T18:08:20.996Z,32.25
2023-02-04T18:13:26.751Z,34.10
2023-02-04T18:18:33.058Z,34.86
2023-02-04T18:23:41.515Z,37.82
2023-02-04T18:28:49.740Z,34.70
2023-02-04T18:33:53.268Z,33.69
2023-02-04T18:38:56.758Z,31.08
2023-02-04T18:44:03.468Z,34.36
2023-02-04T18:49:20.283Z,34.17
2023-02-04T18:54:28.937Z,32.92
2023-02-04T18:59:33.680Z,32.78
2023-02-04T19:04:37.507Z,39.36
2023-02-04T19:09:40.938Z,35.12
2023-02-04T19:14:45.754Z,31.17
2023-02-04T19:19:55.535Z,30.62
2023-02-04T19:25:22.176Z,30.53
2023-02-04T19:30:43.329Z,33.06
2023-02-04T19:35:49.054Z,32.63
2023-02-04T19:40:54.828Z,34.32
2023-02-04T19:46:03.407Z,35.78
2023-02-04T19:51:19.220Z,37.06
2023-02-04T19:56:35.113Z,34.96
2023-02-04T20:01:39.997Z,34.65
2023-02-04T20:06:45.599Z,35.76
2023-02-04T20:12:00.567Z,37.98
2023-02-04T20:17:16.003Z,36.94
2023-02-04T20:22:35.093Z,36.77
2023-02-04T20:27:39.943Z,35.73
2023-02-04T20:32:48.646Z,38.66
2023-02-04T20:37:54.321Z,38.33
2023-02-04T20:42:58.678Z,36.78
2023-02-04T20:48:20.057Z,37.15
2023-02-04T20:53:26.014Z,35.29
2023-02-04T20:58:30.290Z,36.33
2023-02-04T21:03:36.152Z,39.43
2023-02-04T21:08:45.084Z,38.77
2023-02-04T21:13:48.497Z,35.45
2023-02-04T21:18:54.890Z,36.52
2023-02-04T21:23:59.635Z,37.40
2023-02-04T21:29:05.783Z,38.97
2023-02-04T21:34:09.235Z,38.30
2023-02-04T21:39:16.259Z,36.91
2023-02-04T21:44:25.424Z,35.78
2023-02-04T21:49:31.264Z,38.32
2023-02-04T21:54:36.304Z,35.66
2023-02-04T21:59:39.770Z,39.49
2023-02-04T22:04:43.255Z,35.20
2023-02-04T22:09:50.124Z,32.89
2023-02-04T22:15:11.039Z,31.38
2023-02-04T22:20:17.384Z,32.22
2023-02-04T22:25:22.994Z,29.85
2023-02-04T22:30:26.619Z,29.41
2023-02-04T22:35:35.339Z,30.04
2023-02-04T22:40:42.762Z,31.69
2023-02-04T22:45:46.309Z,30.83
2023-02-04T22:50:49.950Z,34.91
2023-02-04T22:55:54.776Z,32.08
2023-02-04T23:00:58.375Z,24.79
2023-02-04T23:06:02.078Z,22.88
2023-02-04T23:11:09.473Z,23.56
2023-02-04T23:16:15.025Z,19.60
2023-02-04T23:21:20.359Z,18.67
2023-02-04T23:26:25.180Z,18.74
2023-02-04T23:31:33.544Z,18.27
2023-02-04T23:36:37.591Z,19.75
2023-02-04T23:41:42.338Z,18.68
2023-02-04T23:46:45.746Z,18.04
2023-02-04T23:51:49.146Z,17.46
2023-02-04T23:56:53.924Z,16.97
